sensor_id;sensor_type;location;lat;lon;timestamp;P1;durP1;ratioP1;P2;durP2;ratioP2
19127;SDS011;9696;53.686;10.094;2023-09-08T00:01:01;6.65;;;5.32;;
19127;SDS011;9696;53.686;10.094;2023-09-08T00:03:30;6.72;;;5.00;;
19127;SDS011;9696;53.686;10.094;2023-09-08T00:05:59;6.95;;;5.05;;
19127;SDS011;9696;53.686;10.094;2023-09-08T00:08:30;7.70;;;4.88;;
19127;SDS011;9696;53.686;10.094;2023-09-08T00:11:00;8.88;;;5.35;;
19127;SDS011;9696;53.686;10.094;2023-09-08T00:13:29;9.95;;;4.80;;
19127;SDS011;9696;53.686;10.094;2023-09-08T00:15:58;9.52;;;4.80;;
19127;SDS011;9696;53.686;10.094;2023-09-08T00:18:27;10.02;;;5.90;;
19127;SDS011;9696;53.686;10.094;2023-09-08T00:20:56;9.40;;;4.50;;
19127;SDS011;9696;53.686;10.094;2023-09-08T00:23:26;7.97;;;5.60;;
19127;SDS011;9696;53.686;10.094;2023-09-08T00:25:56;8.00;;;4.93;;
19127;SDS011;9696;53.686;10.094;2023-09-08T00:28:26;9.98;;;5.43;;
19127;SDS011;9696;53.686;10.094;2023-09-08T00:30:55;7.97;;;5.20;;
19127;SDS011;9696;53.686;10.094;2023-09-08T00:33:26;9.30;;;5.23;;
19127;SDS011;9696;53.686;10.094;2023-09-08T00:35:56;6.90;;;5.13;;
19127;SDS011;9696;53.686;10.094;2023-09-08T00:38:25;7.13;;;5.03;;
19127;SDS011;9696;53.686;10.094;2023-09-08T00:40:54;13.50;;;5.37;;
19127;SDS011;9696;53.686;10.094;2023-09-08T00:43:26;7.60;;;5.37;;
19127;SDS011;9696;53.686;10.094;2023-09-08T00:45:55;8.17;;;4.73;;
19127;SDS011;9696;53.686;10.094;2023-09-08T00:48:26;8.27;;;5.10;;
19127;SDS011;9696;53.686;10.094;2023-09-08T00:50:56;7.17;;;5.13;;
19127;SDS011;9696;53.686;10.094;2023-09-08T00:53:25;8.23;;;5.00;;
19127;SDS011;9696;53.686;10.094;2023-09-08T00:55:56;9.50;;;5.37;;
19127;SDS011;9696;53.686;10.094;2023-09-08T00:58:28;7.67;;;4.70;;
19127;SDS011;9696;53.686;10.094;2023-09-08T01:00:58;8.40;;;5.00;;
19127;SDS011;9696;53.686;10.094;2023-09-08T01:03:27;9.32;;;4.70;;
19127;SDS011;9696;53.686;10.094;2023-09-08T01:05:56;6.80;;;5.17;;
19127;SDS011;9696;53.686;10.094;2023-09-08T01:08:26;8.23;;;5.47;;
19127;SDS011;9696;53.686;10.094;2023-09-08T01:10:57;6.17;;;4.90;;
19127;SDS011;9696;53.686;10.094;2023-09-08T01:13:28;7.80;;;4.65;;
19127;SDS011;9696;53.686;10.094;2023-09-08T01:15:57;9.33;;;4.53;;
19127;SDS011;9696;53.686;10.094;2023-09-08T01:18:26;7.90;;;5.22;;
19127;SDS011;9696;53.686;10.094;2023-09-08T01:23:55;11.37;;;4.80;;
19127;SDS011;9696;53.686;10.094;2023-09-08T01:26:35;8.37;;;5.10;;
19127;SDS011;9696;53.686;10.094;2023-09-08T01:29:08;8.03;;;5.27;;
19127;SDS011;9696;53.686;10.094;2023-09-08T01:31:38;8.87;;;5.27;;
19127;SDS011;9696;53.686;10.094;2023-09-08T01:34:08;13.43;;;5.57;;
19127;SDS011;9696;53.686;10.094;2023-09-08T01:36:37;11.33;;;4.90;;
19127;SDS011;9696;53.686;10.094;2023-09-08T01:39:06;7.40;;;4.87;;
19127;SDS011;9696;53.686;10.094;2023-09-08T01:41:37;9.47;;;5.47;;
19127;SDS011;9696;53.686;10.094;2023-09-08T01:44:06;8.25;;;5.10;;
19127;SDS011;9696;53.686;10.094;2023-09-08T01:46:37;11.07;;;4.87;;
19127;SDS011;9696;53.686;10.094;2023-09-08T01:49:08;11.57;;;5.30;;
19127;SDS011;9696;53.686;10.094;2023-09-08T01:51:37;6.67;;;4.90;;
19127;SDS011;9696;53.686;10.094;2023-09-08T01:54:06;5.47;;;4.67;;
19127;SDS011;9696;53.686;10.094;2023-09-08T01:56:39;6.87;;;5.23;;
19127;SDS011;9696;53.686;10.094;2023-09-08T01:59:08;9.53;;;4.37;;
19127;SDS011;9696;53.686;10.094;2023-09-08T02:01:37;6.03;;;5.03;;
19127;SDS011;9696;53.686;10.094;2023-09-08T02:04:07;6.37;;;4.50;;
19127;SDS011;9696;53.686;10.094;2023-09-08T02:06:36;8.20;;;5.10;;
19127;SDS011;9696;53.686;10.094;2023-09-08T02:09:07;7.87;;;4.93;;
19127;SDS011;9696;53.686;10.094;2023-09-08T02:11:38;7.50;;;5.50;;
19127;SDS011;9696;53.686;10.094;2023-09-08T02:14:08;7.90;;;5.33;;
19127;SDS011;9696;53.686;10.094;2023-09-08T02:16:38;10.67;;;5.60;;
19127;SDS011;9696;53.686;10.094;2023-09-08T02:19:07;7.47;;;5.13;;
19127;SDS011;9696;53.686;10.094;2023-09-08T02:21:42;6.53;;;5.10;;
19127;SDS011;9696;53.686;10.094;2023-09-08T02:24:11;6.67;;;4.53;;
19127;SDS011;9696;53.686;10.094;2023-09-08T02:26:41;6.17;;;4.40;;
19127;SDS011;9696;53.686;10.094;2023-09-08T02:29:11;6.57;;;5.23;;
19127;SDS011;9696;53.686;10.094;2023-09-08T02:31:41;9.70;;;5.43;;
19127;SDS011;9696;53.686;10.094;2023-09-08T02:34:10;7.63;;;5.20;;
19127;SDS011;9696;53.686;10.094;2023-09-08T02:36:39;9.97;;;4.77;;
19127;SDS011;9696;53.686;10.094;2023-09-08T02:39:08;7.53;;;5.37;;
19127;SDS011;9696;53.686;10.094;2023-09-08T02:41:38;7.03;;;5.10;;
19127;SDS011;9696;53.686;10.094;2023-09-08T02:44:09;8.87;;;5.17;;
19127;SDS011;9696;53.686;10.094;2023-09-08T02:46:38;6.80;;;4.60;;
19127;SDS011;9696;53.686;10.094;2023-09-08T02:49:09;8.73;;;5.00;;
19127;SDS011;9696;53.686;10.094;2023-09-08T02:51:38;8.30;;;5.03;;
19127;SDS011;9696;53.686;10.094;2023-09-08T02:54:07;8.73;;;5.27;;
19127;SDS011;9696;53.686;10.094;2023-09-08T02:56:37;9.43;;;5.23;;
19127;SDS011;9696;53.686;10.094;2023-09-08T02:59:06;7.83;;;4.23;;
19127;SDS011;9696;53.686;10.094;2023-09-08T03:01:38;7.23;;;5.10;;
19127;SDS011;9696;53.686;10.094;2023-09-08T03:04:08;8.37;;;4.90;;
19127;SDS011;9696;53.686;10.094;2023-09-08T03:06:38;12.50;;;5.97;;
19127;SDS011;9696;53.686;10.094;2023-09-08T03:09:09;8.73;;;5.30;;
19127;SDS011;9696;53.686;10.094;2023-09-08T03:11:38;6.37;;;4.73;;
19127;SDS011;9696;53.686;10.094;2023-09-08T03:14:07;8.60;;;5.30;;
19127;SDS011;9696;53.686;10.094;2023-09-08T03:16:38;10.97;;;5.30;;
19127;SDS011;9696;53.686;10.094;2023-09-08T03:19:07;9.07;;;5.57;;
19127;SDS011;9696;53.686;10.094;2023-09-08T03:21:36;6.47;;;4.43;;
19127;SDS011;9696;53.686;10.094;2023-09-08T03:24:05;7.72;;;5.32;;
19127;SDS011;9696;53.686;10.094;2023-09-08T03:26:35;6.93;;;5.00;;
19127;SDS011;9696;53.686;10.094;2023-09-08T03:29:04;9.13;;;5.00;;
19127;SDS011;9696;53.686;10.094;2023-09-08T03:31:33;6.13;;;4.80;;
19127;SDS011;9696;53.686;10.094;2023-09-08T03:34:04;8.97;;;6.00;;
19127;SDS011;9696;53.686;10.094;2023-09-08T03:36:33;9.97;;;5.90;;
19127;SDS011;9696;53.686;10.094;2023-09-08T03:39:03;8.77;;;5.90;;
19127;SDS011;9696;53.686;10.094;2023-09-08T03:41:32;9.53;;;6.07;;
19127;SDS011;9696;53.686;10.094;2023-09-08T03:44:02;7.87;;;5.60;;
19127;SDS011;9696;53.686;10.094;2023-09-08T03:46:31;9.80;;;5.70;;
19127;SDS011;9696;53.686;10.094;2023-09-08T03:49:01;8.60;;;5.87;;
19127;SDS011;9696;53.686;10.094;2023-09-08T03:51:32;10.67;;;6.30;;
19127;SDS011;9696;53.686;10.094;2023-09-08T03:54:01;9.17;;;5.50;;
19127;SDS011;9696;53.686;10.094;2023-09-08T03:56:30;10.93;;;5.83;;
19127;SDS011;9696;53.686;10.094;2023-09-08T03:58:59;9.80;;;6.18;;
19127;SDS011;9696;53.686;10.094;2023-09-08T04:01:29;10.07;;;5.97;;
19127;SDS011;9696;53.686;10.094;2023-09-08T04:03:58;9.53;;;5.80;;
19127;SDS011;9696;53.686;10.094;2023-09-08T04:06:28;8.17;;;5.97;;
19127;SDS011;9696;53.686;10.094;2023-09-08T04:08:58;8.40;;;6.03;;
19127;SDS011;9696;53.686;10.094;2023-09-08T04:11:27;7.43;;;5.60;;
19127;SDS011;9696;53.686;10.094;2023-09-08T04:13:57;9.13;;;5.87;;
19127;SDS011;9696;53.686;10.094;2023-09-08T04:16:26;7.80;;;6.00;;
19127;SDS011;9696;53.686;10.094;2023-09-08T04:18:56;9.53;;;5.60;;
19127;SDS011;9696;53.686;10.094;2023-09-08T04:21:25;9.57;;;5.57;;
19127;SDS011;9696;53.686;10.094;2023-09-08T04:23:57;10.23;;;6.10;;
19127;SDS011;9696;53.686;10.094;2023-09-08T04:26:26;8.30;;;5.90;;
19127;SDS011;9696;53.686;10.094;2023-09-08T04:28:55;9.57;;;6.20;;
19127;SDS011;9696;53.686;10.094;2023-09-08T04:31:24;10.30;;;5.87;;
19127;SDS011;9696;53.686;10.094;2023-09-08T04:33:54;6.57;;;5.30;;
19127;SDS011;9696;53.686;10.094;2023-09-08T04:36:23;9.03;;;5.80;;
19127;SDS011;9696;53.686;10.094;2023-09-08T04:38:52;9.37;;;6.10;;
19127;SDS011;9696;53.686;10.094;2023-09-08T04:41:23;8.87;;;5.70;;
19127;SDS011;9696;53.686;10.094;2023-09-08T04:43:52;9.53;;;6.37;;
19127;SDS011;9696;53.686;10.094;2023-09-08T04:46:22;14.00;;;6.67;;
19127;SDS011;9696;53.686;10.094;2023-09-08T04:48:52;7.18;;;5.38;;
19127;SDS011;9696;53.686;10.094;2023-09-08T04:51:23;9.13;;;6.30;;
19127;SDS011;9696;53.686;10.094;2023-09-08T04:53:52;10.90;;;6.03;;
19127;SDS011;9696;53.686;10.094;2023-09-08T04:56:23;8.93;;;6.30;;
19127;SDS011;9696;53.686;10.094;2023-09-08T04:58:52;14.77;;;6.00;;
19127;SDS011;9696;53.686;10.094;2023-09-08T05:01:22;10.93;;;5.50;;
19127;SDS011;9696;53.686;10.094;2023-09-08T05:03:52;7.30;;;4.97;;
19127;SDS011;9696;53.686;10.094;2023-09-08T05:06:22;7.27;;;5.03;;
19127;SDS011;9696;53.686;10.094;2023-09-08T05:08:52;10.25;;;5.65;;
19127;SDS011;9696;53.686;10.094;2023-09-08T05:11:24;9.83;;;5.40;;
19127;SDS011;9696;53.686;10.094;2023-09-08T05:13:54;10.60;;;6.00;;
19127;SDS011;9696;53.686;10.094;2023-09-08T05:16:25;13.83;;;6.27;;
19127;SDS011;9696;53.686;10.094;2023-09-08T05:19:05;9.93;;;6.77;;
19127;SDS011;9696;53.686;10.094;2023-09-08T05:21:36;11.70;;;7.87;;
19127;SDS011;9696;53.686;10.094;2023-09-08T05:24:06;15.93;;;9.57;;
19127;SDS011;9696;53.686;10.094;2023-09-08T05:26:37;12.40;;;7.37;;
19127;SDS011;9696;53.686;10.094;2023-09-08T05:29:09;12.73;;;7.53;;
19127;SDS011;9696;53.686;10.094;2023-09-08T05:31:38;8.87;;;6.67;;
19127;SDS011;9696;53.686;10.094;2023-09-08T05:34:07;8.07;;;6.00;;
19127;SDS011;9696;53.686;10.094;2023-09-08T05:36:37;8.13;;;6.17;;
19127;SDS011;9696;53.686;10.094;2023-09-08T05:39:08;13.00;;;6.83;;
19127;SDS011;9696;53.686;10.094;2023-09-08T05:41:38;12.45;;;6.32;;
19127;SDS011;9696;53.686;10.094;2023-09-08T05:44:08;12.87;;;6.73;;
19127;SDS011;9696;53.686;10.094;2023-09-08T05:46:37;12.80;;;7.23;;
19127;SDS011;9696;53.686;10.094;2023-09-08T05:49:07;8.98;;;6.78;;
19127;SDS011;9696;53.686;10.094;2023-09-08T05:51:37;11.90;;;7.17;;
19127;SDS011;9696;53.686;10.094;2023-09-08T05:54:06;10.68;;;6.95;;
19127;SDS011;9696;53.686;10.094;2023-09-08T05:56:39;12.30;;;6.60;;
19127;SDS011;9696;53.686;10.094;2023-09-08T05:59:09;10.87;;;7.03;;
19127;SDS011;9696;53.686;10.094;2023-09-08T06:01:39;9.13;;;7.43;;
19127;SDS011;9696;53.686;10.094;2023-09-08T06:04:10;14.15;;;6.63;;
19127;SDS011;9696;53.686;10.094;2023-09-08T06:06:39;8.85;;;7.22;;
19127;SDS011;9696;53.686;10.094;2023-09-08T06:09:08;22.05;;;7.65;;
19127;SDS011;9696;53.686;10.094;2023-09-08T06:11:41;9.50;;;6.15;;
19127;SDS011;9696;53.686;10.094;2023-09-08T06:14:10;8.18;;;5.80;;
19127;SDS011;9696;53.686;10.094;2023-09-08T06:16:42;7.03;;;5.30;;
19127;SDS011;9696;53.686;10.094;2023-09-08T06:19:12;11.02;;;5.70;;
19127;SDS011;9696;53.686;10.094;2023-09-08T06:21:41;7.80;;;5.20;;
19127;SDS011;9696;53.686;10.094;2023-09-08T06:24:11;11.98;;;5.68;;
19127;SDS011;9696;53.686;10.094;2023-09-08T06:26:42;10.27;;;5.18;;
19127;SDS011;9696;53.686;10.094;2023-09-08T06:29:11;9.65;;;5.47;;
19127;SDS011;9696;53.686;10.094;2023-09-08T06:31:41;7.45;;;5.05;;
19127;SDS011;9696;53.686;10.094;2023-09-08T06:34:10;8.07;;;4.38;;
19127;SDS011;9696;53.686;10.094;2023-09-08T06:36:39;7.55;;;5.35;;
19127;SDS011;9696;53.686;10.094;2023-09-08T06:39:09;9.15;;;5.55;;
19127;SDS011;9696;53.686;10.094;2023-09-08T06:41:38;7.68;;;5.20;;
19127;SDS011;9696;53.686;10.094;2023-09-08T06:44:12;10.07;;;5.35;;
19127;SDS011;9696;53.686;10.094;2023-09-08T06:46:41;10.45;;;5.68;;
19127;SDS011;9696;53.686;10.094;2023-09-08T06:49:10;10.38;;;5.38;;
19127;SDS011;9696;53.686;10.094;2023-09-08T06:51:39;11.82;;;5.82;;
19127;SDS011;9696;53.686;10.094;2023-09-08T06:54:08;10.57;;;5.07;;
19127;SDS011;9696;53.686;10.094;2023-09-08T06:56:41;9.85;;;6.15;;
19127;SDS011;9696;53.686;10.094;2023-09-08T06:59:12;8.43;;;5.68;;
19127;SDS011;9696;53.686;10.094;2023-09-08T07:01:41;13.75;;;5.60;;
19127;SDS011;9696;53.686;10.094;2023-09-08T07:04:12;13.18;;;4.80;;
19127;SDS011;9696;53.686;10.094;2023-09-08T07:06:42;8.77;;;5.43;;
19127;SDS011;9696;53.686;10.094;2023-09-08T07:09:13;7.85;;;5.20;;
19127;SDS011;9696;53.686;10.094;2023-09-08T07:11:43;9.10;;;4.80;;
19127;SDS011;9696;53.686;10.094;2023-09-08T07:14:13;7.47;;;4.57;;
19127;SDS011;9696;53.686;10.094;2023-09-08T07:16:43;9.05;;;4.20;;
19127;SDS011;9696;53.686;10.094;2023-09-08T07:19:12;8.63;;;4.25;;
19127;SDS011;9696;53.686;10.094;2023-09-08T07:21:42;6.47;;;4.20;;
19127;SDS011;9696;53.686;10.094;2023-09-08T07:24:11;12.88;;;4.15;;
19127;SDS011;9696;53.686;10.094;2023-09-08T07:26:41;8.85;;;3.70;;
19127;SDS011;9696;53.686;10.094;2023-09-08T07:29:10;13.10;;;4.00;;
19127;SDS011;9696;53.686;10.094;2023-09-08T07:31:41;6.05;;;3.97;;
19127;SDS011;9696;53.686;10.094;2023-09-08T07:34:10;6.25;;;3.83;;
19127;SDS011;9696;53.686;10.094;2023-09-08T07:36:40;13.73;;;3.65;;
19127;SDS011;9696;53.686;10.094;2023-09-08T07:39:09;6.82;;;3.20;;
19127;SDS011;9696;53.686;10.094;2023-09-08T07:41:39;7.88;;;4.03;;
19127;SDS011;9696;53.686;10.094;2023-09-08T07:44:09;8.77;;;3.83;;
19127;SDS011;9696;53.686;10.094;2023-09-08T07:46:42;7.82;;;3.63;;
19127;SDS011;9696;53.686;10.094;2023-09-08T07:49:13;12.23;;;3.42;;
19127;SDS011;9696;53.686;10.094;2023-09-08T07:51:42;8.15;;;3.50;;
19127;SDS011;9696;53.686;10.094;2023-09-08T07:54:11;19.42;;;3.47;;
19127;SDS011;9696;53.686;10.094;2023-09-08T07:56:41;8.40;;;3.67;;
19127;SDS011;9696;53.686;10.094;2023-09-08T07:59:10;6.22;;;3.80;;
19127;SDS011;9696;53.686;10.094;2023-09-08T08:01:39;7.13;;;3.83;;
19127;SDS011;9696;53.686;10.094;2023-09-08T08:04:10;6.65;;;3.60;;
19127;SDS011;9696;53.686;10.094;2023-09-08T08:06:39;9.52;;;3.60;;
19127;SDS011;9696;53.686;10.094;2023-09-08T08:09:08;6.07;;;3.50;;
19127;SDS011;9696;53.686;10.094;2023-09-08T08:11:38;9.80;;;3.83;;
19127;SDS011;9696;53.686;10.094;2023-09-08T08:14:07;8.45;;;3.60;;
19127;SDS011;9696;53.686;10.094;2023-09-08T08:16:36;6.22;;;3.50;;
19127;SDS011;9696;53.686;10.094;2023-09-08T08:19:07;8.30;;;3.45;;
19127;SDS011;9696;53.686;10.094;2023-09-08T08:21:36;10.40;;;3.75;;
19127;SDS011;9696;53.686;10.094;2023-09-08T08:24:05;5.65;;;3.55;;
19127;SDS011;9696;53.686;10.094;2023-09-08T08:26:34;5.95;;;3.30;;
19127;SDS011;9696;53.686;10.094;2023-09-08T08:29:04;7.18;;;3.45;;
19127;SDS011;9696;53.686;10.094;2023-09-08T08:31:33;6.32;;;3.45;;
19127;SDS011;9696;53.686;10.094;2023-09-08T08:34:02;12.40;;;3.63;;
19127;SDS011;9696;53.686;10.094;2023-09-08T08:36:33;6.18;;;3.53;;
19127;SDS011;9696;53.686;10.094;2023-09-08T08:39:02;7.32;;;3.63;;
19127;SDS011;9696;53.686;10.094;2023-09-08T08:41:32;5.80;;;3.25;;
19127;SDS011;9696;53.686;10.094;2023-09-08T08:44:05;8.65;;;3.65;;
19127;SDS011;9696;53.686;10.094;2023-09-08T08:46:35;13.18;;;3.83;;
19127;SDS011;9696;53.686;10.094;2023-09-08T08:49:05;7.75;;;3.30;;
19127;SDS011;9696;53.686;10.094;2023-09-08T08:51:36;11.23;;;3.40;;
19127;SDS011;9696;53.686;10.094;2023-09-08T08:54:07;10.63;;;3.70;;
19127;SDS011;9696;53.686;10.094;2023-09-08T08:56:37;5.88;;;3.00;;
19127;SDS011;9696;53.686;10.094;2023-09-08T08:59:06;7.28;;;2.90;;
19127;SDS011;9696;53.686;10.094;2023-09-08T09:01:37;8.60;;;3.20;;
19127;SDS011;9696;53.686;10.094;2023-09-08T09:04:09;6.07;;;3.03;;
19127;SDS011;9696;53.686;10.094;2023-09-08T09:06:40;5.13;;;3.13;;
19127;SDS011;9696;53.686;10.094;2023-09-08T09:09:10;5.65;;;2.95;;
19127;SDS011;9696;53.686;10.094;2023-09-08T09:11:40;7.72;;;3.20;;
19127;SDS011;9696;53.686;10.094;2023-09-08T09:14:09;7.28;;;3.58;;
19127;SDS011;9696;53.686;10.094;2023-09-08T09:16:39;8.82;;;3.10;;
19127;SDS011;9696;53.686;10.094;2023-09-08T09:19:09;6.05;;;2.97;;
19127;SDS011;9696;53.686;10.094;2023-09-08T09:21:47;5.20;;;2.83;;
19127;SDS011;9696;53.686;10.094;2023-09-08T09:24:19;7.50;;;3.25;;
19127;SDS011;9696;53.686;10.094;2023-09-08T09:26:58;8.32;;;3.00;;
19127;SDS011;9696;53.686;10.094;2023-09-08T09:29:27;6.85;;;2.92;;
19127;SDS011;9696;53.686;10.094;2023-09-08T09:31:57;4.78;;;3.15;;
19127;SDS011;9696;53.686;10.094;2023-09-08T09:34:31;7.45;;;2.95;;
19127;SDS011;9696;53.686;10.094;2023-09-08T09:37:01;9.90;;;3.13;;
19127;SDS011;9696;53.686;10.094;2023-09-08T09:39:33;6.88;;;2.80;;
19127;SDS011;9696;53.686;10.094;2023-09-08T09:42:03;9.68;;;3.00;;
19127;SDS011;9696;53.686;10.094;2023-09-08T09:44:32;5.57;;;3.53;;
19127;SDS011;9696;53.686;10.094;2023-09-08T09:47:02;6.40;;;2.80;;
19127;SDS011;9696;53.686;10.094;2023-09-08T09:49:32;7.30;;;3.60;;
19127;SDS011;9696;53.686;10.094;2023-09-08T09:52:12;8.13;;;3.65;;
19127;SDS011;9696;53.686;10.094;2023-09-08T09:54:42;4.88;;;3.30;;
19127;SDS011;9696;53.686;10.094;2023-09-08T09:57:12;8.13;;;3.13;;
19127;SDS011;9696;53.686;10.094;2023-09-08T09:59:42;5.38;;;2.97;;
19127;SDS011;9696;53.686;10.094;2023-09-08T10:02:12;5.32;;;3.13;;
19127;SDS011;9696;53.686;10.094;2023-09-08T10:04:42;5.43;;;3.33;;
19127;SDS011;9696;53.686;10.094;2023-09-08T10:07:13;6.13;;;3.40;;
19127;SDS011;9696;53.686;10.094;2023-09-08T10:09:43;5.18;;;2.97;;
19127;SDS011;9696;53.686;10.094;2023-09-08T10:12:14;7.93;;;2.72;;
19127;SDS011;9696;53.686;10.094;2023-09-08T10:14:43;9.63;;;3.05;;
19127;SDS011;9696;53.686;10.094;2023-09-08T10:17:18;8.90;;;2.92;;
19127;SDS011;9696;53.686;10.094;2023-09-08T10:19:55;6.00;;;2.95;;
19127;SDS011;9696;53.686;10.094;2023-09-08T10:22:37;11.20;;;3.25;;
19127;SDS011;9696;53.686;10.094;2023-09-08T10:25:10;7.88;;;2.55;;
19127;SDS011;9696;53.686;10.094;2023-09-08T10:27:42;11.48;;;2.78;;
19127;SDS011;9696;53.686;10.094;2023-09-08T10:30:12;9.80;;;2.53;;
19127;SDS011;9696;53.686;10.094;2023-09-08T10:32:43;5.13;;;2.65;;
19127;SDS011;9696;53.686;10.094;2023-09-08T10:35:13;8.00;;;2.97;;
19127;SDS011;9696;53.686;10.094;2023-09-08T10:37:45;5.38;;;2.78;;
19127;SDS011;9696;53.686;10.094;2023-09-08T10:40:21;3.28;;;2.58;;
19127;SDS011;9696;53.686;10.094;2023-09-08T10:43:05;11.35;;;2.63;;
19127;SDS011;9696;53.686;10.094;2023-09-08T10:45:35;6.10;;;2.83;;
19127;SDS011;9696;53.686;10.094;2023-09-08T10:48:05;5.32;;;2.42;;
19127;SDS011;9696;53.686;10.094;2023-09-08T10:50:35;6.18;;;3.08;;
19127;SDS011;9696;53.686;10.094;2023-09-08T10:53:14;4.43;;;2.55;;
19127;SDS011;9696;53.686;10.094;2023-09-08T10:55:44;11.32;;;2.95;;
19127;SDS011;9696;53.686;10.094;2023-09-08T10:58:37;3.97;;;2.80;;
19127;SDS011;9696;53.686;10.094;2023-09-08T11:01:12;7.03;;;2.78;;
19127;SDS011;9696;53.686;10.094;2023-09-08T11:03:44;4.10;;;2.35;;
19127;SDS011;9696;53.686;10.094;2023-09-08T11:06:18;3.85;;;2.78;;
19127;SDS011;9696;53.686;10.094;2023-09-08T11:08:50;6.55;;;2.50;;
19127;SDS011;9696;53.686;10.094;2023-09-08T11:11:23;7.10;;;2.63;;
19127;SDS011;9696;53.686;10.094;2023-09-08T11:13:52;3.13;;;2.63;;
19127;SDS011;9696;53.686;10.094;2023-09-08T11:16:22;5.60;;;3.00;;
19127;SDS011;9696;53.686;10.094;2023-09-08T11:18:56;7.45;;;2.75;;
19127;SDS011;9696;53.686;10.094;2023-09-08T11:21:25;5.82;;;2.38;;
19127;SDS011;9696;53.686;10.094;2023-09-08T11:24:04;7.18;;;2.65;;
19127;SDS011;9696;53.686;10.094;2023-09-08T11:26:36;4.75;;;2.50;;
19127;SDS011;9696;53.686;10.094;2023-09-08T11:29:05;5.72;;;2.78;;
19127;SDS011;9696;53.686;10.094;2023-09-08T11:31:35;4.93;;;2.30;;
19127;SDS011;9696;53.686;10.094;2023-09-08T11:34:05;6.18;;;2.60;;
19127;SDS011;9696;53.686;10.094;2023-09-08T11:36:34;4.00;;;2.88;;
19127;SDS011;9696;53.686;10.094;2023-09-08T11:39:05;6.38;;;2.70;;
19127;SDS011;9696;53.686;10.094;2023-09-08T11:41:35;6.30;;;2.58;;
19127;SDS011;9696;53.686;10.094;2023-09-08T11:44:05;10.43;;;2.78;;
19127;SDS011;9696;53.686;10.094;2023-09-08T11:46:34;21.00;;;2.72;;
19127;SDS011;9696;53.686;10.094;2023-09-08T11:49:04;6.93;;;2.72;;
19127;SDS011;9696;53.686;10.094;2023-09-08T11:51:33;4.88;;;2.42;;
19127;SDS011;9696;53.686;10.094;2023-09-08T11:54:03;4.18;;;2.58;;
19127;SDS011;9696;53.686;10.094;2023-09-08T11:56:34;6.63;;;2.63;;
19127;SDS011;9696;53.686;10.094;2023-09-08T11:59:06;6.20;;;2.40;;
19127;SDS011;9696;53.686;10.094;2023-09-08T12:01:35;5.00;;;2.15;;
19127;SDS011;9696;53.686;10.094;2023-09-08T12:04:05;3.20;;;2.20;;
19127;SDS011;9696;53.686;10.094;2023-09-08T12:06:34;4.13;;;2.50;;
19127;SDS011;9696;53.686;10.094;2023-09-08T12:09:03;3.22;;;2.22;;
19127;SDS011;9696;53.686;10.094;2023-09-08T12:11:35;5.93;;;2.20;;
19127;SDS011;9696;53.686;10.094;2023-09-08T12:14:11;3.25;;;2.17;;
19127;SDS011;9696;53.686;10.094;2023-09-08T12:16:42;3.80;;;2.22;;
19127;SDS011;9696;53.686;10.094;2023-09-08T12:19:30;5.60;;;2.45;;
19127;SDS011;9696;53.686;10.094;2023-09-08T12:22:00;5.00;;;1.80;;
19127;SDS011;9696;53.686;10.094;2023-09-08T12:24:48;3.50;;;2.08;;
19127;SDS011;9696;53.686;10.094;2023-09-08T12:27:24;3.55;;;2.20;;
19127;SDS011;9696;53.686;10.094;2023-09-08T12:29:54;6.10;;;2.50;;
19127;SDS011;9696;53.686;10.094;2023-09-08T12:32:24;5.20;;;2.10;;
19127;SDS011;9696;53.686;10.094;2023-09-08T12:34:54;4.03;;;2.33;;
19127;SDS011;9696;53.686;10.094;2023-09-08T12:37:23;4.88;;;2.10;;
19127;SDS011;9696;53.686;10.094;2023-09-08T12:39:55;3.45;;;1.95;;
19127;SDS011;9696;53.686;10.094;2023-09-08T12:42:25;3.63;;;2.13;;
19127;SDS011;9696;53.686;10.094;2023-09-08T12:44:57;6.82;;;2.40;;
19127;SDS011;9696;53.686;10.094;2023-09-08T12:47:26;8.23;;;2.55;;
19127;SDS011;9696;53.686;10.094;2023-09-08T12:49:56;3.65;;;2.45;;
19127;SDS011;9696;53.686;10.094;2023-09-08T12:52:25;6.82;;;2.38;;
19127;SDS011;9696;53.686;10.094;2023-09-08T12:54:55;5.70;;;2.35;;
19127;SDS011;9696;53.686;10.094;2023-09-08T12:57:24;2.97;;;2.50;;
19127;SDS011;9696;53.686;10.094;2023-09-08T12:59:54;3.75;;;2.22;;
19127;SDS011;9696;53.686;10.094;2023-09-08T13:02:23;7.78;;;2.28;;
19127;SDS011;9696;53.686;10.094;2023-09-08T13:04:52;3.15;;;2.10;;
19127;SDS011;9696;53.686;10.094;2023-09-08T13:07:22;3.60;;;2.30;;
19127;SDS011;9696;53.686;10.094;2023-09-08T13:09:51;4.82;;;2.38;;
19127;SDS011;9696;53.686;10.094;2023-09-08T13:12:22;4.72;;;2.28;;
19127;SDS011;9696;53.686;10.094;2023-09-08T13:14:52;8.40;;;2.42;;
19127;SDS011;9696;53.686;10.094;2023-09-08T13:17:21;3.88;;;2.17;;
19127;SDS011;9696;53.686;10.094;2023-09-08T13:19:50;5.25;;;2.40;;
19127;SDS011;9696;53.686;10.094;2023-09-08T13:22:20;4.63;;;2.15;;
19127;SDS011;9696;53.686;10.094;2023-09-08T13:24:50;8.35;;;2.53;;
19127;SDS011;9696;53.686;10.094;2023-09-08T13:27:19;4.45;;;2.58;;
19127;SDS011;9696;53.686;10.094;2023-09-08T13:29:49;5.28;;;2.75;;
19127;SDS011;9696;53.686;10.094;2023-09-08T13:32:21;7.22;;;2.38;;
19127;SDS011;9696;53.686;10.094;2023-09-08T13:34:52;3.45;;;2.33;;
19127;SDS011;9696;53.686;10.094;2023-09-08T13:37:21;5.63;;;2.20;;
19127;SDS011;9696;53.686;10.094;2023-09-08T13:39:50;3.38;;;2.38;;
19127;SDS011;9696;53.686;10.094;2023-09-08T13:42:19;4.13;;;2.13;;
19127;SDS011;9696;53.686;10.094;2023-09-08T13:44:50;5.00;;;2.35;;
19127;SDS011;9696;53.686;10.094;2023-09-08T13:47:20;4.50;;;2.30;;
19127;SDS011;9696;53.686;10.094;2023-09-08T13:49:50;5.05;;;2.05;;
19127;SDS011;9696;53.686;10.094;2023-09-08T13:52:23;6.00;;;2.65;;
19127;SDS011;9696;53.686;10.094;2023-09-08T13:54:56;4.47;;;2.58;;
19127;SDS011;9696;53.686;10.094;2023-09-08T13:57:30;4.95;;;2.40;;
19127;SDS011;9696;53.686;10.094;2023-09-08T14:00:01;2.83;;;1.75;;
19127;SDS011;9696;53.686;10.094;2023-09-08T14:02:35;13.65;;;2.47;;
19127;SDS011;9696;53.686;10.094;2023-09-08T14:05:10;2.55;;;2.10;;
19127;SDS011;9696;53.686;10.094;2023-09-08T14:07:45;8.75;;;2.30;;
19127;SDS011;9696;53.686;10.094;2023-09-08T14:10:28;3.60;;;2.17;;
19127;SDS011;9696;53.686;10.094;2023-09-08T14:13:05;6.10;;;2.13;;
19127;SDS011;9696;53.686;10.094;2023-09-08T14:15:34;7.85;;;2.15;;
19127;SDS011;9696;53.686;10.094;2023-09-08T14:18:04;4.38;;;1.92;;
19127;SDS011;9696;53.686;10.094;2023-09-08T14:20:33;3.75;;;2.00;;
19127;SDS011;9696;53.686;10.094;2023-09-08T14:23:03;2.53;;;1.90;;
19127;SDS011;9696;53.686;10.094;2023-09-08T14:25:34;2.55;;;1.70;;
19127;SDS011;9696;53.686;10.094;2023-09-08T14:28:05;4.25;;;2.13;;
19127;SDS011;9696;53.686;10.094;2023-09-08T14:30:34;3.78;;;2.30;;
19127;SDS011;9696;53.686;10.094;2023-09-08T14:33:03;5.15;;;2.13;;
19127;SDS011;9696;53.686;10.094;2023-09-08T14:35:34;4.43;;;2.20;;
19127;SDS011;9696;53.686;10.094;2023-09-08T14:38:04;3.85;;;1.90;;
19127;SDS011;9696;53.686;10.094;2023-09-08T14:40:33;7.00;;;2.17;;
19127;SDS011;9696;53.686;10.094;2023-09-08T14:43:02;7.30;;;2.03;;
19127;SDS011;9696;53.686;10.094;2023-09-08T14:45:33;3.70;;;2.25;;
19127;SDS011;9696;53.686;10.094;2023-09-08T14:48:02;3.03;;;1.92;;
19127;SDS011;9696;53.686;10.094;2023-09-08T14:50:31;15.00;;;2.70;;
19127;SDS011;9696;53.686;10.094;2023-09-08T14:53:01;8.05;;;2.28;;
19127;SDS011;9696;53.686;10.094;2023-09-08T14:55:30;5.82;;;2.30;;
19127;SDS011;9696;53.686;10.094;2023-09-08T14:57:59;10.63;;;2.20;;
19127;SDS011;9696;53.686;10.094;2023-09-08T15:00:30;5.90;;;2.17;;
19127;SDS011;9696;53.686;10.094;2023-09-08T15:02:59;3.92;;;2.47;;
19127;SDS011;9696;53.686;10.094;2023-09-08T15:05:31;6.00;;;2.03;;
19127;SDS011;9696;53.686;10.094;2023-09-08T15:08:01;2.60;;;1.95;;